createdAt,value
2023-03-23T15:58:31.280Z,2.10
2023-03-23T16:00:06.546Z,2.50
2023-03-23T16:01:36.349Z,2.40
2023-03-23T16:03:04.638Z,2.20
2023-03-23T16:10:42.287Z,2.80
2023-03-23T16:15:49.491Z,2.40
2023-03-23T16:20:32.941Z,3.00
2023-03-23T16:23:09.634Z,3.70
2023-03-23T16:24:42.398Z,2.60
2023-03-23T16:26:45.405Z,3.60
2023-03-23T16:30:50.021Z,2.30
2023-03-23T16:32:48.989Z,2.20
2023-03-23T16:36:06.692Z,2.00
2023-03-23T16:39:05.760Z,1.80
2023-03-23T16:43:46.786Z,2.10
2023-03-23T16:45:45.412Z,2.10
2023-03-23T16:47:33.881Z,1.80
2023-03-23T16:49:38.780Z,1.60
2023-03-23T16:53:47.711Z,1.80
2023-03-23T16:55:57.922Z,1.70
2023-03-23T16:58:17.749Z,1.90
2023-03-23T17:00:22.849Z,1.60
2023-03-23T17:03:28.840Z,1.60
2023-03-23T17:04:58.888Z,2.00
2023-03-23T17:09:15.132Z,1.70
2023-03-23T17:13:59.905Z,1.70
2023-03-23T17:17:21.645Z,1.80
2023-03-23T17:21:07.008Z,1.80
2023-03-23T17:22:36.218Z,1.70
2023-03-23T17:26:16.273Z,1.80
2023-03-23T17:27:48.150Z,2.00
2023-03-23T17:29:35.893Z,2.10
2023-03-23T17:32:24.678Z,2.00
2023-03-23T17:33:53.904Z,2.20
2023-03-23T17:35:44.371Z,2.20
2023-03-23T17:37:14.281Z,2.00
2023-03-23T17:39:42.449Z,2.40
2023-03-23T17:41:10.121Z,2.70
2023-03-23T17:44:53.080Z,3.10
2023-03-23T17:46:22.895Z,3.10
2023-03-23T17:53:58.111Z,2.90
2023-03-23T17:56:55.384Z,2.90
2023-03-23T18:01:45.369Z,4.30
2023-03-23T18:09:10.077Z,3.90
2023-03-23T18:17:36.907Z,3.00
2023-03-23T18:19:05.459Z,3.10
2023-03-23T18:20:34.008Z,3.50
2023-03-23T18:22:54.603Z,2.90
2023-03-23T18:26:35.681Z,3.30
2023-03-23T18:31:21.620Z,3.40
2023-03-23T18:34:31.338Z,3.30
2023-03-23T18:36:03.202Z,4.00
2023-03-23T18:38:00.221Z,3.60
2023-03-23T18:40:23.029Z,3.50
2023-03-23T18:42:23.841Z,3.80
2023-03-23T18:45:10.268Z,3.50
2023-03-23T18:54:12.366Z,3.80
2023-03-23T18:55:44.408Z,4.50
2023-03-23T18:57:45.227Z,3.70
2023-03-23T19:02:29.476Z,3.40
2023-03-23T19:07:57.912Z,3.90
2023-03-23T19:09:28.863Z,3.40
2023-03-23T19:14:35.913Z,3.30
2023-03-23T19:18:06.310Z,4.00
2023-03-23T19:23:44.869Z,5.50
2023-03-23T19:26:11.696Z,3.90
2023-03-23T19:29:21.434Z,4.70
2023-03-23T19:30:11.426Z,3.90
2023-03-23T19:31:44.683Z,3.70
2023-03-23T19:33:11.563Z,4.10
2023-03-23T19:38:47.227Z,4.00
2023-03-23T19:44:22.547Z,4.30
2023-03-23T19:46:28.335Z,4.00
2023-03-23T19:49:44.231Z,3.80
2023-03-23T19:52:31.323Z,3.70
2023-03-23T19:56:56.132Z,3.80
2023-03-23T20:00:49.420Z,3.70
2023-03-23T20:03:19.131Z,3.30
2023-03-23T20:07:03.210Z,3.30
2023-03-23T20:09:32.370Z,3.40
2023-03-23T20:11:03.296Z,3.60
2023-03-23T20:14:06.291Z,3.60
2023-03-23T20:18:43.134Z,4.40
2023-03-23T20:22:01.826Z,3.10
2023-03-23T20:28:12.180Z,3.00
2023-03-23T20:30:28.257Z,3.20
2023-03-23T20:32:29.103Z,3.10
2023-03-23T20:34:47.873Z,3.40
2023-03-23T20:36:16.808Z,2.50
2023-03-23T20:38:26.489Z,3.30
2023-03-23T20:45:30.951Z,4.80
2023-03-23T20:46:48.312Z,3.90
2023-03-23T20:47:27.339Z,4.80
2023-03-23T20:50:37.562Z,5.30
2023-03-23T21:00:08.824Z,3.70
2023-03-23T21:03:59.263Z,3.20
2023-03-23T21:07:20.078Z,3.50
2023-03-23T21:09:58.971Z,3.40
2023-03-23T21:12:38.097Z,4.00
2023-03-23T21:14:05.109Z,3.20
2023-03-23T21:19:09.259Z,3.30
2023-03-23T21:21:39.493Z,3.10
2023-03-23T21:24:21.804Z,2.80
2023-03-23T21:27:28.288Z,2.90
2023-03-23T21:36:54.450Z,3.00
2023-03-23T21:44:50.719Z,2.80
2023-03-23T21:46:22.557Z,2.70
2023-03-23T21:49:40.894Z,2.70
2023-03-23T21:52:48.939Z,3.10
2023-03-23T21:54:45.594Z,3.60
2023-03-23T21:56:14.954Z,3.50
2023-03-23T21:59:55.622Z,4.60
2023-03-23T22:01:25.589Z,5.40
2023-03-23T22:03:27.606Z,6.80
2023-03-23T22:06:01.235Z,5.00
2023-03-23T22:07:59.345Z,3.30
2023-03-23T22:12:45.737Z,3.30
2023-03-23T22:15:37.329Z,3.00
2023-03-23T22:19:00.321Z,3.10
2023-03-23T22:20:25.483Z,3.30
2023-03-23T22:21:55.930Z,3.50
2023-03-23T22:25:30.122Z,3.30
2023-03-23T22:28:56.052Z,3.20
2023-03-23T22:33:20.269Z,3.90
2023-03-23T22:37:11.417Z,3.40
2023-03-23T22:38:10.716Z,3.40
2023-03-23T22:39:10.693Z,4.00
2023-03-23T22:44:46.424Z,3.10
2023-03-23T22:50:36.014Z,3.40
2023-03-23T22:52:11.051Z,3.20
2023-03-23T22:57:07.609Z,3.80
2023-03-23T22:58:36.493Z,3.40
2023-03-23T23:01:06.266Z,2.80
2023-03-23T23:03:27.289Z,3.10
2023-03-23T23:09:21.047Z,3.10
2023-03-23T23:10:51.679Z,3.40
2023-03-23T23:12:20.607Z,3.10
2023-03-23T23:18:06.675Z,3.10
2023-03-23T23:21:56.283Z,3.60
2023-03-23T23:31:48.750Z,2.90
2023-03-23T23:34:13.047Z,3.40
2023-03-23T23:35:41.007Z,3.30
2023-03-23T23:37:09.915Z,3.20
2023-03-23T23:41:00.208Z,3.00
2023-03-23T23:41:59.509Z,3.20
2023-03-23T23:42:59.222Z,3.30
2023-03-23T23:46:16.853Z,3.60
2023-03-23T23:47:47.157Z,3.40
2023-03-23T23:50:19.655Z,4.00
2023-03-23T23:52:09.504Z,3.20
2023-03-23T23:55:39.053Z,3.40
2023-03-23T23:57:09.929Z,3.00
